sensor_id;sensor_type;location;lat;lon;timestamp;P1;durP1;ratioP1;P2;durP2;ratioP2
78897;SDS011;70344;44.736;37.800;2023-06-04T00:00:28;12.65;;;7.13;;
78897;SDS011;70344;44.736;37.800;2023-06-04T00:01:30;13.02;;;6.28;;
78897;SDS011;70344;44.736;37.800;2023-06-04T00:02:33;10.85;;;6.47;;
78897;SDS011;70344;44.736;37.800;2023-06-04T00:03:40;16.65;;;7.57;;
78897;SDS011;70344;44.736;37.800;2023-06-04T00:04:45;11.00;;;6.95;;
78897;SDS011;70344;44.736;37.800;2023-06-04T00:05:53;11.13;;;6.43;;
78897;SDS011;70344;44.736;37.800;2023-06-04T00:06:58;10.98;;;6.93;;
78897;SDS011;70344;44.736;37.800;2023-06-04T00:08:02;10.70;;;6.75;;
78897;SDS011;70344;44.736;37.800;2023-06-04T00:09:10;12.27;;;7.05;;
78897;SDS011;70344;44.736;37.800;2023-06-04T00:10:15;10.77;;;6.40;;
78897;SDS011;70344;44.736;37.800;2023-06-04T00:11:18;20.88;;;6.82;;
78897;SDS011;70344;44.736;37.800;2023-06-04T00:12:22;12.05;;;6.43;;
78897;SDS011;70344;44.736;37.800;2023-06-04T00:13:31;16.67;;;6.50;;
78897;SDS011;70344;44.736;37.800;2023-06-04T00:14:36;10.00;;;6.05;;
78897;SDS011;70344;44.736;37.800;2023-06-04T00:15:38;13.18;;;6.40;;
78897;SDS011;70344;44.736;37.800;2023-06-04T00:16:46;10.35;;;7.10;;
78897;SDS011;70344;44.736;37.800;2023-06-04T00:17:51;15.10;;;7.28;;
78897;SDS011;70344;44.736;37.800;2023-06-04T00:18:58;11.68;;;6.20;;
78897;SDS011;70344;44.736;37.800;2023-06-04T00:20:03;14.20;;;6.55;;
78897;SDS011;70344;44.736;37.800;2023-06-04T00:21:08;13.23;;;6.10;;
78897;SDS011;70344;44.736;37.800;2023-06-04T00:22:13;14.57;;;6.47;;
78897;SDS011;70344;44.736;37.800;2023-06-04T00:23:16;12.02;;;6.63;;
78897;SDS011;70344;44.736;37.800;2023-06-04T00:24:23;10.40;;;6.15;;
78897;SDS011;70344;44.736;37.800;2023-06-04T00:25:25;11.00;;;6.47;;
78897;SDS011;70344;44.736;37.800;2023-06-04T00:26:33;12.20;;;6.65;;
78897;SDS011;70344;44.736;37.800;2023-06-04T00:27:38;12.32;;;6.60;;
78897;SDS011;70344;44.736;37.800;2023-06-04T00:28:46;13.75;;;6.30;;
78897;SDS011;70344;44.736;37.800;2023-06-04T00:29:49;14.48;;;6.00;;
78897;SDS011;70344;44.736;37.800;2023-06-04T00:30:51;10.90;;;5.88;;
78897;SDS011;70344;44.736;37.800;2023-06-04T00:32:00;18.38;;;7.15;;
78897;SDS011;70344;44.736;37.800;2023-06-04T00:33:10;11.05;;;7.15;;
78897;SDS011;70344;44.736;37.800;2023-06-04T00:34:16;14.07;;;6.90;;
78897;SDS011;70344;44.736;37.800;2023-06-04T00:35:23;9.82;;;6.15;;
78897;SDS011;70344;44.736;37.800;2023-06-04T00:36:28;17.40;;;7.53;;
78897;SDS011;70344;44.736;37.800;2023-06-04T00:37:38;10.25;;;6.53;;
78897;SDS011;70344;44.736;37.800;2023-06-04T00:38:43;12.32;;;6.15;;
78897;SDS011;70344;44.736;37.800;2023-06-04T00:39:48;12.57;;;6.85;;
78897;SDS011;70344;44.736;37.800;2023-06-04T00:40:54;22.75;;;6.95;;
78897;SDS011;70344;44.736;37.800;2023-06-04T00:42:01;11.13;;;6.55;;
78897;SDS011;70344;44.736;37.800;2023-06-04T00:43:12;15.07;;;6.03;;
78897;SDS011;70344;44.736;37.800;2023-06-04T00:44:15;11.65;;;6.25;;
78897;SDS011;70344;44.736;37.800;2023-06-04T00:45:23;13.77;;;6.28;;
78897;SDS011;70344;44.736;37.800;2023-06-04T00:46:37;9.80;;;6.72;;
78897;SDS011;70344;44.736;37.800;2023-06-04T00:47:42;10.20;;;6.32;;
78897;SDS011;70344;44.736;37.800;2023-06-04T00:48:54;11.82;;;6.15;;
78897;SDS011;70344;44.736;37.800;2023-06-04T00:50:00;11.48;;;6.15;;
78897;SDS011;70344;44.736;37.800;2023-06-04T00:51:05;14.18;;;6.22;;
78897;SDS011;70344;44.736;37.800;2023-06-04T00:52:08;11.32;;;5.60;;
78897;SDS011;70344;44.736;37.800;2023-06-04T00:54:18;11.98;;;5.80;;
78897;SDS011;70344;44.736;37.800;2023-06-04T00:55:27;12.55;;;5.65;;
78897;SDS011;70344;44.736;37.800;2023-06-04T00:56:37;10.38;;;5.72;;
78897;SDS011;70344;44.736;37.800;2023-06-04T00:57:46;11.60;;;6.05;;
78897;SDS011;70344;44.736;37.800;2023-06-04T00:58:49;21.42;;;6.43;;
78897;SDS011;70344;44.736;37.800;2023-06-04T00:59:58;9.13;;;5.50;;
78897;SDS011;70344;44.736;37.800;2023-06-04T01:01:04;13.15;;;6.15;;
78897;SDS011;70344;44.736;37.800;2023-06-04T01:02:13;10.95;;;5.68;;
78897;SDS011;70344;44.736;37.800;2023-06-04T01:03:26;9.50;;;5.38;;
78897;SDS011;70344;44.736;37.800;2023-06-04T01:04:46;16.25;;;6.10;;
78897;SDS011;70344;44.736;37.800;2023-06-04T01:07:35;16.33;;;5.65;;
78897;SDS011;70344;44.736;37.800;2023-06-04T01:08:40;11.18;;;5.43;;
78897;SDS011;70344;44.736;37.800;2023-06-04T01:09:46;10.93;;;5.65;;
78897;SDS011;70344;44.736;37.800;2023-06-04T01:10:55;16.90;;;6.45;;
78897;SDS011;70344;44.736;37.800;2023-06-04T01:12:03;11.68;;;6.45;;
78897;SDS011;70344;44.736;37.800;2023-06-04T01:13:11;11.43;;;5.88;;
78897;SDS011;70344;44.736;37.800;2023-06-04T01:14:14;11.55;;;6.18;;
78897;SDS011;70344;44.736;37.800;2023-06-04T01:15:24;12.95;;;5.85;;
78897;SDS011;70344;44.736;37.800;2023-06-04T01:16:28;13.82;;;6.05;;
78897;SDS011;70344;44.736;37.800;2023-06-04T01:17:37;10.70;;;6.03;;
78897;SDS011;70344;44.736;37.800;2023-06-04T01:18:57;16.35;;;5.82;;
78897;SDS011;70344;44.736;37.800;2023-06-04T01:21:23;14.50;;;5.90;;
78897;SDS011;70344;44.736;37.800;2023-06-04T01:23:51;12.05;;;6.10;;
78897;SDS011;70344;44.736;37.800;2023-06-04T01:25:04;9.75;;;5.30;;
78897;SDS011;70344;44.736;37.800;2023-06-04T01:26:12;12.48;;;5.85;;
78897;SDS011;70344;44.736;37.800;2023-06-04T01:27:17;18.65;;;5.72;;
78897;SDS011;70344;44.736;37.800;2023-06-04T01:28:24;13.55;;;5.50;;
78897;SDS011;70344;44.736;37.800;2023-06-04T01:29:35;13.77;;;5.22;;
78897;SDS011;70344;44.736;37.800;2023-06-04T01:30:38;14.52;;;5.38;;
78897;SDS011;70344;44.736;37.800;2023-06-04T01:31:50;22.52;;;6.85;;
78897;SDS011;70344;44.736;37.800;2023-06-04T01:32:56;14.32;;;6.28;;
78897;SDS011;70344;44.736;37.800;2023-06-04T01:34:07;12.82;;;5.95;;
78897;SDS011;70344;44.736;37.800;2023-06-04T01:35:12;11.00;;;6.03;;
78897;SDS011;70344;44.736;37.800;2023-06-04T01:36:20;11.20;;;5.72;;
78897;SDS011;70344;44.736;37.800;2023-06-04T01:37:25;17.70;;;5.70;;
78897;SDS011;70344;44.736;37.800;2023-06-04T01:38:28;10.48;;;5.25;;
78897;SDS011;70344;44.736;37.800;2023-06-04T01:39:36;11.88;;;5.38;;
78897;SDS011;70344;44.736;37.800;2023-06-04T01:40:41;10.90;;;5.35;;
78897;SDS011;70344;44.736;37.800;2023-06-04T01:41:43;12.15;;;5.38;;
78897;SDS011;70344;44.736;37.800;2023-06-04T01:42:49;13.63;;;5.80;;
78897;SDS011;70344;44.736;37.800;2023-06-04T01:43:56;9.77;;;5.97;;
78897;SDS011;70344;44.736;37.800;2023-06-04T01:44:58;23.23;;;5.75;;
78897;SDS011;70344;44.736;37.800;2023-06-04T01:46:01;10.32;;;5.70;;
78897;SDS011;70344;44.736;37.800;2023-06-04T01:47:05;12.15;;;5.13;;
78897;SDS011;70344;44.736;37.800;2023-06-04T01:48:12;16.60;;;5.70;;
78897;SDS011;70344;44.736;37.800;2023-06-04T01:49:15;13.40;;;5.38;;
78897;SDS011;70344;44.736;37.800;2023-06-04T01:50:22;16.10;;;5.38;;
78897;SDS011;70344;44.736;37.800;2023-06-04T01:51:27;14.40;;;5.53;;
78897;SDS011;70344;44.736;37.800;2023-06-04T01:52:35;14.70;;;5.65;;
78897;SDS011;70344;44.736;37.800;2023-06-04T01:53:38;11.38;;;5.30;;
78897;SDS011;70344;44.736;37.800;2023-06-04T01:54:45;10.70;;;5.20;;
78897;SDS011;70344;44.736;37.800;2023-06-04T01:55:54;11.18;;;5.53;;
78897;SDS011;70344;44.736;37.800;2023-06-04T01:56:58;12.00;;;5.28;;
78897;SDS011;70344;44.736;37.800;2023-06-04T01:58:07;19.08;;;6.07;;
78897;SDS011;70344;44.736;37.800;2023-06-04T01:59:11;13.20;;;4.95;;
78897;SDS011;70344;44.736;37.800;2023-06-04T02:00:33;12.70;;;6.22;;
78897;SDS011;70344;44.736;37.800;2023-06-04T02:01:35;82.97;;;10.65;;
78897;SDS011;70344;44.736;37.800;2023-06-04T02:02:41;24.20;;;5.55;;
78897;SDS011;70344;44.736;37.800;2023-06-04T02:03:46;13.07;;;5.10;;
78897;SDS011;70344;44.736;37.800;2023-06-04T02:04:48;11.55;;;5.53;;
78897;SDS011;70344;44.736;37.800;2023-06-04T02:05:53;10.30;;;5.07;;
78897;SDS011;70344;44.736;37.800;2023-06-04T02:07:02;11.48;;;4.93;;
78897;SDS011;70344;44.736;37.800;2023-06-04T02:08:09;11.90;;;5.15;;
78897;SDS011;70344;44.736;37.800;2023-06-04T02:09:25;24.10;;;5.88;;
78897;SDS011;70344;44.736;37.800;2023-06-04T02:10:34;12.75;;;5.03;;
78897;SDS011;70344;44.736;37.800;2023-06-04T02:11:36;9.73;;;5.55;;
78897;SDS011;70344;44.736;37.800;2023-06-04T02:12:41;16.48;;;5.75;;
78897;SDS011;70344;44.736;37.800;2023-06-04T02:14:06;11.20;;;4.70;;
78897;SDS011;70344;44.736;37.800;2023-06-04T02:15:17;10.88;;;5.07;;
78897;SDS011;70344;44.736;37.800;2023-06-04T02:16:24;11.20;;;5.95;;
78897;SDS011;70344;44.736;37.800;2023-06-04T02:17:30;16.27;;;5.72;;
78897;SDS011;70344;44.736;37.800;2023-06-04T02:18:43;15.07;;;5.45;;
78897;SDS011;70344;44.736;37.800;2023-06-04T02:19:47;15.85;;;5.25;;
78897;SDS011;70344;44.736;37.800;2023-06-04T02:21:00;13.07;;;5.05;;
78897;SDS011;70344;44.736;37.800;2023-06-04T02:22:04;13.32;;;5.22;;
78897;SDS011;70344;44.736;37.800;2023-06-04T02:23:11;10.23;;;5.10;;
78897;SDS011;70344;44.736;37.800;2023-06-04T02:24:18;12.40;;;4.63;;
78897;SDS011;70344;44.736;37.800;2023-06-04T02:25:23;9.93;;;5.05;;
78897;SDS011;70344;44.736;37.800;2023-06-04T02:26:33;8.98;;;5.47;;
78897;SDS011;70344;44.736;37.800;2023-06-04T02:27:35;13.80;;;5.28;;
78897;SDS011;70344;44.736;37.800;2023-06-04T02:28:40;10.02;;;5.13;;
78897;SDS011;70344;44.736;37.800;2023-06-04T02:29:45;17.75;;;5.70;;
78897;SDS011;70344;44.736;37.800;2023-06-04T02:30:52;16.13;;;5.53;;
78897;SDS011;70344;44.736;37.800;2023-06-04T02:31:54;8.88;;;5.05;;
78897;SDS011;70344;44.736;37.800;2023-06-04T02:33:02;12.80;;;5.25;;
78897;SDS011;70344;44.736;37.800;2023-06-04T02:34:05;9.23;;;4.60;;
78897;SDS011;70344;44.736;37.800;2023-06-04T02:35:10;11.55;;;4.70;;
78897;SDS011;70344;44.736;37.800;2023-06-04T02:36:15;10.48;;;4.93;;
78897;SDS011;70344;44.736;37.800;2023-06-04T02:37:22;11.70;;;5.15;;
78897;SDS011;70344;44.736;37.800;2023-06-04T02:38:24;10.35;;;5.38;;
78897;SDS011;70344;44.736;37.800;2023-06-04T02:39:34;12.15;;;6.25;;
78897;SDS011;70344;44.736;37.800;2023-06-04T02:40:38;12.23;;;5.20;;
78897;SDS011;70344;44.736;37.800;2023-06-04T02:41:41;11.50;;;4.63;;
78897;SDS011;70344;44.736;37.800;2023-06-04T02:43:49;23.30;;;5.90;;
78897;SDS011;70344;44.736;37.800;2023-06-04T02:44:51;13.07;;;6.05;;
78897;SDS011;70344;44.736;37.800;2023-06-04T02:45:56;12.02;;;5.18;;
78897;SDS011;70344;44.736;37.800;2023-06-04T02:47:00;12.63;;;5.50;;
78897;SDS011;70344;44.736;37.800;2023-06-04T02:49:10;12.05;;;5.88;;
78897;SDS011;70344;44.736;37.800;2023-06-04T02:50:15;13.35;;;5.38;;
78897;SDS011;70344;44.736;37.800;2023-06-04T02:51:22;9.88;;;4.85;;
78897;SDS011;70344;44.736;37.800;2023-06-04T02:52:26;12.23;;;5.03;;
78897;SDS011;70344;44.736;37.800;2023-06-04T02:53:28;11.95;;;5.10;;
78897;SDS011;70344;44.736;37.800;2023-06-04T02:54:29;22.98;;;5.40;;
78897;SDS011;70344;44.736;37.800;2023-06-04T02:55:33;8.63;;;5.35;;
78897;SDS011;70344;44.736;37.800;2023-06-04T02:56:40;9.82;;;5.00;;
78897;SDS011;70344;44.736;37.800;2023-06-04T02:57:48;13.98;;;4.88;;
78897;SDS011;70344;44.736;37.800;2023-06-04T02:58:55;13.48;;;4.72;;
78897;SDS011;70344;44.736;37.800;2023-06-04T03:00:03;12.35;;;4.95;;
78897;SDS011;70344;44.736;37.800;2023-06-04T03:01:17;14.20;;;4.72;;
78897;SDS011;70344;44.736;37.800;2023-06-04T03:02:23;17.23;;;4.63;;
78897;SDS011;70344;44.736;37.800;2023-06-04T03:03:27;9.25;;;4.60;;
78897;SDS011;70344;44.736;37.800;2023-06-04T03:04:29;14.07;;;5.40;;
78897;SDS011;70344;44.736;37.800;2023-06-04T03:05:37;10.02;;;4.78;;
78897;SDS011;70344;44.736;37.800;2023-06-04T03:06:44;11.57;;;4.88;;
78897;SDS011;70344;44.736;37.800;2023-06-04T03:07:50;9.48;;;4.43;;
78897;SDS011;70344;44.736;37.800;2023-06-04T03:08:54;12.40;;;4.20;;
78897;SDS011;70344;44.736;37.800;2023-06-04T03:09:59;9.77;;;4.30;;
78897;SDS011;70344;44.736;37.800;2023-06-04T03:11:07;8.55;;;4.28;;
78897;SDS011;70344;44.736;37.800;2023-06-04T03:12:14;12.23;;;4.50;;
78897;SDS011;70344;44.736;37.800;2023-06-04T03:13:24;13.10;;;5.03;;
78897;SDS011;70344;44.736;37.800;2023-06-04T03:14:29;13.40;;;4.65;;
78897;SDS011;70344;44.736;37.800;2023-06-04T03:15:34;9.07;;;4.13;;
78897;SDS011;70344;44.736;37.800;2023-06-04T03:16:40;10.05;;;4.00;;
78897;SDS011;70344;44.736;37.800;2023-06-04T03:17:44;10.18;;;4.25;;
78897;SDS011;70344;44.736;37.800;2023-06-04T03:18:46;8.18;;;4.03;;
78897;SDS011;70344;44.736;37.800;2023-06-04T03:19:50;7.45;;;4.28;;
78897;SDS011;70344;44.736;37.800;2023-06-04T03:21:03;10.10;;;4.07;;
78897;SDS011;70344;44.736;37.800;2023-06-04T03:22:06;11.82;;;4.88;;
78897;SDS011;70344;44.736;37.800;2023-06-04T03:23:16;11.85;;;4.25;;
78897;SDS011;70344;44.736;37.800;2023-06-04T03:24:18;9.65;;;4.80;;
78897;SDS011;70344;44.736;37.800;2023-06-04T03:26:28;9.52;;;4.63;;
78897;SDS011;70344;44.736;37.800;2023-06-04T03:27:32;9.90;;;4.53;;
78897;SDS011;70344;44.736;37.800;2023-06-04T03:28:34;7.72;;;4.15;;
78897;SDS011;70344;44.736;37.800;2023-06-04T03:29:39;8.13;;;4.78;;
78897;SDS011;70344;44.736;37.800;2023-06-04T03:30:42;8.45;;;5.03;;
78897;SDS011;70344;44.736;37.800;2023-06-04T03:31:46;7.53;;;4.38;;
78897;SDS011;70344;44.736;37.800;2023-06-04T03:32:56;10.68;;;4.78;;
78897;SDS011;70344;44.736;37.800;2023-06-04T03:33:58;8.90;;;4.22;;
78897;SDS011;70344;44.736;37.800;2023-06-04T03:35:00;11.07;;;5.25;;
78897;SDS011;70344;44.736;37.800;2023-06-04T03:36:09;10.82;;;5.00;;
78897;SDS011;70344;44.736;37.800;2023-06-04T03:37:23;9.80;;;4.47;;
78897;SDS011;70344;44.736;37.800;2023-06-04T03:38:30;11.43;;;5.18;;
78897;SDS011;70344;44.736;37.800;2023-06-04T03:39:33;12.73;;;5.28;;
78897;SDS011;70344;44.736;37.800;2023-06-04T03:40:37;14.75;;;5.45;;
78897;SDS011;70344;44.736;37.800;2023-06-04T03:41:53;11.48;;;5.95;;
78897;SDS011;70344;44.736;37.800;2023-06-04T03:42:58;9.50;;;6.05;;
78897;SDS011;70344;44.736;37.800;2023-06-04T03:44:04;12.07;;;5.93;;
78897;SDS011;70344;44.736;37.800;2023-06-04T03:45:12;16.95;;;6.07;;
78897;SDS011;70344;44.736;37.800;2023-06-04T03:46:17;17.05;;;6.97;;
78897;SDS011;70344;44.736;37.800;2023-06-04T03:47:28;16.33;;;8.30;;
78897;SDS011;70344;44.736;37.800;2023-06-04T03:48:33;17.92;;;9.13;;
78897;SDS011;70344;44.736;37.800;2023-06-04T03:49:41;16.75;;;10.23;;
78897;SDS011;70344;44.736;37.800;2023-06-04T03:50:43;18.40;;;9.93;;
78897;SDS011;70344;44.736;37.800;2023-06-04T03:51:50;17.20;;;8.85;;
78897;SDS011;70344;44.736;37.800;2023-06-04T03:52:53;14.73;;;8.30;;
78897;SDS011;70344;44.736;37.800;2023-06-04T03:53:55;12.27;;;8.45;;
78897;SDS011;70344;44.736;37.800;2023-06-04T03:54:59;15.90;;;7.53;;
78897;SDS011;70344;44.736;37.800;2023-06-04T03:56:05;22.35;;;6.78;;
78897;SDS011;70344;44.736;37.800;2023-06-04T03:58:15;11.10;;;5.78;;
78897;SDS011;70344;44.736;37.800;2023-06-04T03:59:25;9.25;;;6.20;;
78897;SDS011;70344;44.736;37.800;2023-06-04T04:00:27;13.35;;;6.65;;
78897;SDS011;70344;44.736;37.800;2023-06-04T04:01:35;12.60;;;7.35;;
78897;SDS011;70344;44.736;37.800;2023-06-04T04:02:41;10.80;;;6.75;;
78897;SDS011;70344;44.736;37.800;2023-06-04T04:04:08;21.48;;;6.85;;
78897;SDS011;70344;44.736;37.800;2023-06-04T04:05:16;10.18;;;6.40;;
78897;SDS011;70344;44.736;37.800;2023-06-04T04:06:22;11.10;;;7.00;;
78897;SDS011;70344;44.736;37.800;2023-06-04T04:07:25;16.63;;;6.65;;
78897;SDS011;70344;44.736;37.800;2023-06-04T04:08:27;9.98;;;6.35;;
78897;SDS011;70344;44.736;37.800;2023-06-04T04:09:43;12.30;;;7.00;;
78897;SDS011;70344;44.736;37.800;2023-06-04T04:10:50;15.30;;;6.30;;
78897;SDS011;70344;44.736;37.800;2023-06-04T04:11:52;13.60;;;6.82;;
78897;SDS011;70344;44.736;37.800;2023-06-04T04:12:58;13.00;;;6.70;;
78897;SDS011;70344;44.736;37.800;2023-06-04T04:14:02;11.80;;;7.35;;
78897;SDS011;70344;44.736;37.800;2023-06-04T04:15:07;13.18;;;6.50;;
78897;SDS011;70344;44.736;37.800;2023-06-04T04:16:13;10.43;;;6.10;;
78897;SDS011;70344;44.736;37.800;2023-06-04T04:17:15;11.18;;;5.72;;
78897;SDS011;70344;44.736;37.800;2023-06-04T04:18:22;10.38;;;5.85;;
78897;SDS011;70344;44.736;37.800;2023-06-04T04:19:27;10.80;;;5.40;;
78897;SDS011;70344;44.736;37.800;2023-06-04T04:20:30;10.80;;;4.97;;
78897;SDS011;70344;44.736;37.800;2023-06-04T04:21:37;16.85;;;5.80;;
78897;SDS011;70344;44.736;37.800;2023-06-04T04:22:40;15.13;;;5.75;;
78897;SDS011;70344;44.736;37.800;2023-06-04T04:23:48;10.93;;;5.72;;
78897;SDS011;70344;44.736;37.800;2023-06-04T04:24:56;12.00;;;5.35;;
78897;SDS011;70344;44.736;37.800;2023-06-04T04:26:05;7.88;;;4.65;;
78897;SDS011;70344;44.736;37.800;2023-06-04T04:27:15;12.90;;;5.30;;
78897;SDS011;70344;44.736;37.800;2023-06-04T04:28:17;11.30;;;5.55;;
78897;SDS011;70344;44.736;37.800;2023-06-04T04:29:23;17.38;;;6.07;;
78897;SDS011;70344;44.736;37.800;2023-06-04T04:30:29;9.90;;;5.00;;
78897;SDS011;70344;44.736;37.800;2023-06-04T04:31:37;9.25;;;5.20;;
78897;SDS011;70344;44.736;37.800;2023-06-04T04:32:42;8.50;;;5.50;;
78897;SDS011;70344;44.736;37.800;2023-06-04T04:33:56;10.75;;;6.00;;
78897;SDS011;70344;44.736;37.800;2023-06-04T04:35:01;8.50;;;5.63;;
78897;SDS011;70344;44.736;37.800;2023-06-04T04:36:10;13.15;;;5.70;;
78897;SDS011;70344;44.736;37.800;2023-06-04T04:37:21;10.27;;;6.45;;
78897;SDS011;70344;44.736;37.800;2023-06-04T04:38:31;14.82;;;6.53;;
78897;SDS011;70344;44.736;37.800;2023-06-04T04:39:40;13.60;;;6.32;;
78897;SDS011;70344;44.736;37.800;2023-06-04T04:40:42;10.60;;;6.20;;
78897;SDS011;70344;44.736;37.800;2023-06-04T04:41:47;11.13;;;5.60;;
78897;SDS011;70344;44.736;37.800;2023-06-04T04:42:52;10.35;;;6.30;;
78897;SDS011;70344;44.736;37.800;2023-06-04T04:44:02;11.77;;;6.25;;
78897;SDS011;70344;44.736;37.800;2023-06-04T04:45:10;10.25;;;6.53;;
78897;SDS011;70344;44.736;37.800;2023-06-04T04:46:12;12.30;;;6.35;;
78897;SDS011;70344;44.736;37.800;2023-06-04T04:47:17;11.38;;;6.10;;
78897;SDS011;70344;44.736;37.800;2023-06-04T04:48:20;12.20;;;6.43;;
78897;SDS011;70344;44.736;37.800;2023-06-04T04:49:24;9.93;;;6.13;;
78897;SDS011;70344;44.736;37.800;2023-06-04T04:50:31;10.75;;;5.68;;
78897;SDS011;70344;44.736;37.800;2023-06-04T04:51:37;9.05;;;5.90;;
78897;SDS011;70344;44.736;37.800;2023-06-04T04:52:39;10.43;;;6.18;;
78897;SDS011;70344;44.736;37.800;2023-06-04T04:53:42;14.88;;;6.15;;
78897;SDS011;70344;44.736;37.800;2023-06-04T04:54:52;20.23;;;6.70;;
78897;SDS011;70344;44.736;37.800;2023-06-04T04:56:01;14.95;;;6.60;;
78897;SDS011;70344;44.736;37.800;2023-06-04T04:57:08;9.30;;;5.47;;
78897;SDS011;70344;44.736;37.800;2023-06-04T04:58:15;13.55;;;5.93;;
78897;SDS011;70344;44.736;37.800;2023-06-04T04:59:21;10.07;;;6.20;;
78897;SDS011;70344;44.736;37.800;2023-06-04T05:00:39;10.43;;;6.13;;
78897;SDS011;70344;44.736;37.800;2023-06-04T05:01:44;8.85;;;5.85;;
78897;SDS011;70344;44.736;37.800;2023-06-04T05:02:46;10.65;;;5.80;;
78897;SDS011;70344;44.736;37.800;2023-06-04T05:03:56;13.98;;;5.80;;
78897;SDS011;70344;44.736;37.800;2023-06-04T05:05:03;12.55;;;6.00;;
78897;SDS011;70344;44.736;37.800;2023-06-04T05:06:11;15.50;;;5.82;;
78897;SDS011;70344;44.736;37.800;2023-06-04T05:07:14;9.38;;;5.68;;
78897;SDS011;70344;44.736;37.800;2023-06-04T05:08:26;11.10;;;6.53;;
78897;SDS011;70344;44.736;37.800;2023-06-04T05:09:33;13.15;;;6.30;;
78897;SDS011;70344;44.736;37.800;2023-06-04T05:10:41;12.50;;;6.43;;
78897;SDS011;70344;44.736;37.800;2023-06-04T05:11:47;9.77;;;6.18;;
78897;SDS011;70344;44.736;37.800;2023-06-04T05:12:53;12.85;;;5.50;;
78897;SDS011;70344;44.736;37.800;2023-06-04T05:13:59;10.27;;;6.03;;
78897;SDS011;70344;44.736;37.800;2023-06-04T05:15:02;9.63;;;4.82;;
78897;SDS011;70344;44.736;37.800;2023-06-04T05:16:10;16.20;;;5.32;;
78897;SDS011;70344;44.736;37.800;2023-06-04T05:17:17;14.65;;;5.53;;
78897;SDS011;70344;44.736;37.800;2023-06-04T05:18:38;11.38;;;5.60;;
78897;SDS011;70344;44.736;37.800;2023-06-04T05:19:51;9.05;;;5.47;;
78897;SDS011;70344;44.736;37.800;2023-06-04T05:20:59;9.27;;;5.53;;
78897;SDS011;70344;44.736;37.800;2023-06-04T05:22:12;14.10;;;6.00;;
78897;SDS011;70344;44.736;37.800;2023-06-04T05:23:20;13.60;;;5.93;;
78897;SDS011;70344;44.736;37.800;2023-06-04T05:24:25;15.05;;;5.82;;
78897;SDS011;70344;44.736;37.800;2023-06-04T05:25:36;28.25;;;7.00;;
78897;SDS011;70344;44.736;37.800;2023-06-04T05:26:39;12.32;;;6.35;;
78897;SDS011;70344;44.736;37.800;2023-06-04T05:27:48;10.75;;;6.28;;
78897;SDS011;70344;44.736;37.800;2023-06-04T05:28:58;13.23;;;6.00;;
78897;SDS011;70344;44.736;37.800;2023-06-04T05:30:02;16.60;;;6.28;;
78897;SDS011;70344;44.736;37.800;2023-06-04T05:31:07;10.90;;;6.50;;
78897;SDS011;70344;44.736;37.800;2023-06-04T05:32:11;13.77;;;6.72;;
78897;SDS011;70344;44.736;37.800;2023-06-04T05:33:21;11.38;;;6.18;;
78897;SDS011;70344;44.736;37.800;2023-06-04T05:34:29;13.05;;;7.30;;
78897;SDS011;70344;44.736;37.800;2023-06-04T05:35:31;11.88;;;7.40;;
78897;SDS011;70344;44.736;37.800;2023-06-04T05:36:38;12.32;;;6.95;;
78897;SDS011;70344;44.736;37.800;2023-06-04T05:37:44;11.45;;;6.75;;
78897;SDS011;70344;44.736;37.800;2023-06-04T05:38:49;11.45;;;6.93;;
78897;SDS011;70344;44.736;37.800;2023-06-04T05:40:00;10.13;;;6.07;;
78897;SDS011;70344;44.736;37.800;2023-06-04T05:41:03;11.05;;;6.10;;
78897;SDS011;70344;44.736;37.800;2023-06-04T05:42:10;10.32;;;6.28;;
78897;SDS011;70344;44.736;37.800;2023-06-04T05:43:15;12.38;;;6.68;;
78897;SDS011;70344;44.736;37.800;2023-06-04T05:44:20;13.30;;;7.10;;
78897;SDS011;70344;44.736;37.800;2023-06-04T05:45:25;13.50;;;7.97;;
78897;SDS011;70344;44.736;37.800;2023-06-04T05:46:41;9.52;;;6.43;;
78897;SDS011;70344;44.736;37.800;2023-06-04T05:47:49;13.38;;;6.50;;
78897;SDS011;70344;44.736;37.800;2023-06-04T05:48:51;12.35;;;7.85;;
78897;SDS011;70344;44.736;37.800;2023-06-04T05:49:59;14.88;;;7.47;;
78897;SDS011;70344;44.736;37.800;2023-06-04T05:51:09;11.30;;;7.10;;
78897;SDS011;70344;44.736;37.800;2023-06-04T05:53:29;11.18;;;7.55;;
78897;SDS011;70344;44.736;37.800;2023-06-04T05:54:35;12.02;;;6.43;;
78897;SDS011;70344;44.736;37.800;2023-06-04T05:55:44;13.85;;;6.65;;
78897;SDS011;70344;44.736;37.800;2023-06-04T05:56:47;14.68;;;8.38;;
78897;SDS011;70344;44.736;37.800;2023-06-04T05:57:49;13.55;;;7.35;;
78897;SDS011;70344;44.736;37.800;2023-06-04T05:58:57;12.90;;;7.00;;
78897;SDS011;70344;44.736;37.800;2023-06-04T06:00:04;9.60;;;6.68;;
78897;SDS011;70344;44.736;37.800;2023-06-04T06:01:23;13.65;;;8.07;;
78897;SDS011;70344;44.736;37.800;2023-06-04T06:02:28;10.63;;;7.15;;
78897;SDS011;70344;44.736;37.800;2023-06-04T06:03:34;11.38;;;7.50;;
78897;SDS011;70344;44.736;37.800;2023-06-04T06:04:44;13.25;;;7.65;;
78897;SDS011;70344;44.736;37.800;2023-06-04T06:05:54;12.93;;;7.65;;
78897;SDS011;70344;44.736;37.800;2023-06-04T06:06:58;11.27;;;7.50;;
78897;SDS011;70344;44.736;37.800;2023-06-04T06:08:00;19.15;;;7.28;;
78897;SDS011;70344;44.736;37.800;2023-06-04T06:09:06;11.18;;;7.57;;
78897;SDS011;70344;44.736;37.800;2023-06-04T06:10:12;15.15;;;8.02;;
78897;SDS011;70344;44.736;37.800;2023-06-04T06:11:18;14.85;;;7.70;;
78897;SDS011;70344;44.736;37.800;2023-06-04T06:12:20;13.77;;;8.27;;
78897;SDS011;70344;44.736;37.800;2023-06-04T06:13:26;12.80;;;7.78;;
78897;SDS011;70344;44.736;37.800;2023-06-04T06:14:34;15.27;;;7.82;;
78897;SDS011;70344;44.736;37.800;2023-06-04T06:15:39;10.98;;;7.40;;
78897;SDS011;70344;44.736;37.800;2023-06-04T06:16:41;16.92;;;8.18;;
78897;SDS011;70344;44.736;37.800;2023-06-04T06:17:44;12.50;;;7.00;;
78897;SDS011;70344;44.736;37.800;2023-06-04T06:18:51;12.07;;;6.72;;
78897;SDS011;70344;44.736;37.800;2023-06-04T06:21:06;10.85;;;6.03;;
78897;SDS011;70344;44.736;37.800;2023-06-04T06:22:14;11.30;;;7.05;;
78897;SDS011;70344;44.736;37.800;2023-06-04T06:23:17;12.20;;;6.65;;
78897;SDS011;70344;44.736;37.800;2023-06-04T06:24:21;16.65;;;7.30;;
78897;SDS011;70344;44.736;37.800;2023-06-04T06:25:28;13.65;;;6.60;;
78897;SDS011;70344;44.736;37.800;2023-06-04T06:26:36;18.50;;;6.95;;
78897;SDS011;70344;44.736;37.800;2023-06-04T06:27:40;10.68;;;7.03;;
78897;SDS011;70344;44.736;37.800;2023-06-04T06:28:45;14.18;;;7.82;;
78897;SDS011;70344;44.736;37.800;2023-06-04T06:29:53;10.98;;;6.95;;
78897;SDS011;70344;44.736;37.800;2023-06-04T06:30:56;13.30;;;7.38;;
78897;SDS011;70344;44.736;37.800;2023-06-04T06:31:59;12.60;;;6.55;;
78897;SDS011;70344;44.736;37.800;2023-06-04T06:33:02;11.10;;;6.07;;
78897;SDS011;70344;44.736;37.800;2023-06-04T06:34:06;8.98;;;6.22;;
78897;SDS011;70344;44.736;37.800;2023-06-04T06:35:12;16.38;;;5.75;;
78897;SDS011;70344;44.736;37.800;2023-06-04T06:36:17;10.18;;;6.22;;
78897;SDS011;70344;44.736;37.800;2023-06-04T06:37:22;16.67;;;6.22;;
78897;SDS011;70344;44.736;37.800;2023-06-04T06:38:27;9.95;;;5.47;;
78897;SDS011;70344;44.736;37.800;2023-06-04T06:39:35;14.32;;;5.07;;
78897;SDS011;70344;44.736;37.800;2023-06-04T06:40:37;9.65;;;5.65;;
78897;SDS011;70344;44.736;37.800;2023-06-04T06:41:42;12.48;;;5.18;;